sensor_id;sensor_type;location;lat;lon;timestamp;P1;durP1;ratioP1;P2;durP2;ratioP2
68593;SDS011;55563;52.416;13.548;2022-10-24T00:00:58;1.00;;;1.00;;
68593;SDS011;55563;52.416;13.548;2022-10-24T00:02:59;0.80;;;0.80;;
68593;SDS011;55563;52.416;13.548;2022-10-24T00:05:00;1.20;;;1.10;;
68593;SDS011;55563;52.416;13.548;2022-10-24T00:07:01;1.08;;;1.08;;
68593;SDS011;55563;52.416;13.548;2022-10-24T00:09:02;1.15;;;1.15;;
68593;SDS011;55563;52.416;13.548;2022-10-24T00:11:07;0.98;;;0.98;;
68593;SDS011;55563;52.416;13.548;2022-10-24T00:13:10;0.85;;;0.85;;
68593;SDS011;55563;52.416;13.548;2022-10-24T00:15:12;1.17;;;1.17;;
68593;SDS011;55563;52.416;13.548;2022-10-24T00:17:13;2.75;;;1.30;;
68593;SDS011;55563;52.416;13.548;2022-10-24T00:19:14;1.08;;;1.08;;
68593;SDS011;55563;52.416;13.548;2022-10-24T00:21:14;0.95;;;0.95;;
68593;SDS011;55563;52.416;13.548;2022-10-24T00:23:15;0.90;;;0.90;;
68593;SDS011;55563;52.416;13.548;2022-10-24T00:25:16;1.15;;;1.15;;
68593;SDS011;55563;52.416;13.548;2022-10-24T00:27:17;0.75;;;0.75;;
68593;SDS011;55563;52.416;13.548;2022-10-24T00:29:18;0.93;;;0.93;;
68593;SDS011;55563;52.416;13.548;2022-10-24T00:31:18;1.20;;;1.15;;
68593;SDS011;55563;52.416;13.548;2022-10-24T00:33:19;1.58;;;1.48;;
68593;SDS011;55563;52.416;13.548;2022-10-24T00:35:20;1.00;;;1.00;;
68593;SDS011;55563;52.416;13.548;2022-10-24T00:37:20;0.73;;;0.73;;
68593;SDS011;55563;52.416;13.548;2022-10-24T00:39:21;0.82;;;0.82;;
68593;SDS011;55563;52.416;13.548;2022-10-24T00:41:23;0.98;;;0.98;;
68593;SDS011;55563;52.416;13.548;2022-10-24T00:43:27;0.98;;;0.98;;
68593;SDS011;55563;52.416;13.548;2022-10-24T00:45:44;0.95;;;0.95;;
68593;SDS011;55563;52.416;13.548;2022-10-24T00:47:47;0.90;;;0.90;;
68593;SDS011;55563;52.416;13.548;2022-10-24T00:49:54;1.00;;;1.00;;
68593;SDS011;55563;52.416;13.548;2022-10-24T00:52:02;1.02;;;1.02;;
68593;SDS011;55563;52.416;13.548;2022-10-24T00:54:07;1.02;;;1.02;;
68593;SDS011;55563;52.416;13.548;2022-10-24T00:56:11;0.77;;;0.77;;
68593;SDS011;55563;52.416;13.548;2022-10-24T00:58:14;1.10;;;1.10;;
68593;SDS011;55563;52.416;13.548;2022-10-24T01:00:18;1.00;;;1.00;;
68593;SDS011;55563;52.416;13.548;2022-10-24T01:02:22;0.90;;;0.90;;
68593;SDS011;55563;52.416;13.548;2022-10-24T01:04:23;0.90;;;0.90;;
68593;SDS011;55563;52.416;13.548;2022-10-24T01:09:08;0.73;;;0.73;;
68593;SDS011;55563;52.416;13.548;2022-10-24T01:14:17;0.93;;;0.93;;
68593;SDS011;55563;52.416;13.548;2022-10-24T01:16:44;0.90;;;0.90;;
68593;SDS011;55563;52.416;13.548;2022-10-24T01:18:52;0.93;;;0.93;;
68593;SDS011;55563;52.416;13.548;2022-10-24T01:21:04;1.02;;;1.02;;
68593;SDS011;55563;52.416;13.548;2022-10-24T01:25:35;0.20;;;0.20;;
68593;SDS011;55563;52.416;13.548;2022-10-24T01:27:59;0.47;;;0.47;;
68593;SDS011;55563;52.416;13.548;2022-10-24T01:30:07;0.30;;;0.30;;
68593;SDS011;55563;52.416;13.548;2022-10-24T01:32:21;0.45;;;0.45;;
68593;SDS011;55563;52.416;13.548;2022-10-24T01:34:46;0.30;;;0.30;;
68593;SDS011;55563;52.416;13.548;2022-10-24T01:37:12;0.73;;;0.47;;
68593;SDS011;55563;52.416;13.548;2022-10-24T01:39:19;0.40;;;0.40;;
68593;SDS011;55563;52.416;13.548;2022-10-24T01:41:25;0.30;;;0.30;;
68593;SDS011;55563;52.416;13.548;2022-10-24T01:43:32;0.40;;;0.40;;
68593;SDS011;55563;52.416;13.548;2022-10-24T01:45:37;0.40;;;0.40;;
68593;SDS011;55563;52.416;13.548;2022-10-24T01:47:42;0.30;;;0.30;;
68593;SDS011;55563;52.416;13.548;2022-10-24T01:49:51;0.40;;;0.40;;
68593;SDS011;55563;52.416;13.548;2022-10-24T01:51:56;0.35;;;0.35;;
68593;SDS011;55563;52.416;13.548;2022-10-24T01:54:02;0.50;;;0.50;;
68593;SDS011;55563;52.416;13.548;2022-10-24T01:56:03;0.40;;;0.40;;
68593;SDS011;55563;52.416;13.548;2022-10-24T01:58:05;0.40;;;0.40;;
68593;SDS011;55563;52.416;13.548;2022-10-24T02:00:08;0.20;;;0.20;;
68593;SDS011;55563;52.416;13.548;2022-10-24T02:02:18;0.45;;;0.45;;
68593;SDS011;55563;52.416;13.548;2022-10-24T02:04:23;0.30;;;0.30;;
68593;SDS011;55563;52.416;13.548;2022-10-24T02:06:27;0.63;;;0.40;;
68593;SDS011;55563;52.416;13.548;2022-10-24T02:08:33;0.22;;;0.22;;
68593;SDS011;55563;52.416;13.548;2022-10-24T02:10:39;0.40;;;0.40;;
68593;SDS011;55563;52.416;13.548;2022-10-24T02:12:49;0.60;;;0.60;;
68593;SDS011;55563;52.416;13.548;2022-10-24T02:14:56;0.30;;;0.30;;
68593;SDS011;55563;52.416;13.548;2022-10-24T02:17:01;0.20;;;0.20;;
68593;SDS011;55563;52.416;13.548;2022-10-24T02:19:03;0.30;;;0.30;;
68593;SDS011;55563;52.416;13.548;2022-10-24T02:21:06;0.50;;;0.50;;
68593;SDS011;55563;52.416;13.548;2022-10-24T02:23:19;0.20;;;0.20;;
68593;SDS011;55563;52.416;13.548;2022-10-24T02:25:29;0.40;;;0.32;;
68593;SDS011;55563;52.416;13.548;2022-10-24T02:27:36;0.30;;;0.30;;
68593;SDS011;55563;52.416;13.548;2022-10-24T02:29:46;1.05;;;0.30;;
68593;SDS011;55563;52.416;13.548;2022-10-24T02:31:52;0.93;;;0.40;;
68593;SDS011;55563;52.416;13.548;2022-10-24T02:33:56;0.30;;;0.30;;
68593;SDS011;55563;52.416;13.548;2022-10-24T02:35:59;0.40;;;0.40;;
68593;SDS011;55563;52.416;13.548;2022-10-24T02:38:06;0.22;;;0.22;;
68593;SDS011;55563;52.416;13.548;2022-10-24T02:40:13;0.45;;;0.40;;
68593;SDS011;55563;52.416;13.548;2022-10-24T02:42:17;0.30;;;0.30;;
68593;SDS011;55563;52.416;13.548;2022-10-24T02:44:20;0.50;;;0.50;;
68593;SDS011;55563;52.416;13.548;2022-10-24T02:46:23;0.47;;;0.47;;
68593;SDS011;55563;52.416;13.548;2022-10-24T02:48:27;0.38;;;0.38;;
68593;SDS011;55563;52.416;13.548;2022-10-24T02:50:32;0.20;;;0.20;;
68593;SDS011;55563;52.416;13.548;2022-10-24T02:52:34;0.35;;;0.35;;
68593;SDS011;55563;52.416;13.548;2022-10-24T02:54:36;0.20;;;0.20;;
68593;SDS011;55563;52.416;13.548;2022-10-24T02:56:38;1.23;;;0.50;;
68593;SDS011;55563;52.416;13.548;2022-10-24T02:58:43;0.73;;;0.73;;
68593;SDS011;55563;52.416;13.548;2022-10-24T03:00:43;0.47;;;0.47;;
68593;SDS011;55563;52.416;13.548;2022-10-24T03:02:44;0.80;;;0.80;;
68593;SDS011;55563;52.416;13.548;2022-10-24T03:04:45;0.25;;;0.25;;
68593;SDS011;55563;52.416;13.548;2022-10-24T03:06:45;0.20;;;0.20;;
68593;SDS011;55563;52.416;13.548;2022-10-24T03:08:46;0.52;;;0.40;;
68593;SDS011;55563;52.416;13.548;2022-10-24T03:10:47;0.47;;;0.47;;
68593;SDS011;55563;52.416;13.548;2022-10-24T03:12:48;0.52;;;0.52;;
68593;SDS011;55563;52.416;13.548;2022-10-24T03:14:48;0.77;;;0.77;;
68593;SDS011;55563;52.416;13.548;2022-10-24T03:16:49;0.40;;;0.40;;
68593;SDS011;55563;52.416;13.548;2022-10-24T03:18:50;0.20;;;0.20;;
68593;SDS011;55563;52.416;13.548;2022-10-24T03:20:50;0.50;;;0.50;;
68593;SDS011;55563;52.416;13.548;2022-10-24T03:22:51;0.30;;;0.30;;
68593;SDS011;55563;52.416;13.548;2022-10-24T03:24:52;0.40;;;0.40;;
68593;SDS011;55563;52.416;13.548;2022-10-24T03:26:52;0.40;;;0.40;;
68593;SDS011;55563;52.416;13.548;2022-10-24T03:28:53;0.30;;;0.30;;
68593;SDS011;55563;52.416;13.548;2022-10-24T03:30:53;0.43;;;0.43;;
68593;SDS011;55563;52.416;13.548;2022-10-24T03:32:55;0.30;;;0.30;;
68593;SDS011;55563;52.416;13.548;2022-10-24T03:34:56;0.30;;;0.30;;
68593;SDS011;55563;52.416;13.548;2022-10-24T03:36:56;0.50;;;0.50;;
68593;SDS011;55563;52.416;13.548;2022-10-24T03:38:57;0.50;;;0.50;;
68593;SDS011;55563;52.416;13.548;2022-10-24T03:40:58;0.43;;;0.43;;
68593;SDS011;55563;52.416;13.548;2022-10-24T03:42:58;0.40;;;0.40;;
68593;SDS011;55563;52.416;13.548;2022-10-24T03:44:59;0.40;;;0.40;;
68593;SDS011;55563;52.416;13.548;2022-10-24T03:47:00;0.57;;;0.57;;
68593;SDS011;55563;52.416;13.548;2022-10-24T03:49:00;0.30;;;0.30;;
68593;SDS011;55563;52.416;13.548;2022-10-24T03:51:01;0.60;;;0.57;;
68593;SDS011;55563;52.416;13.548;2022-10-24T03:53:02;0.50;;;0.50;;
68593;SDS011;55563;52.416;13.548;2022-10-24T03:55:03;0.30;;;0.30;;
68593;SDS011;55563;52.416;13.548;2022-10-24T03:57:04;0.30;;;0.30;;
68593;SDS011;55563;52.416;13.548;2022-10-24T03:59:05;0.45;;;0.45;;
68593;SDS011;55563;52.416;13.548;2022-10-24T04:01:05;0.63;;;0.63;;
68593;SDS011;55563;52.416;13.548;2022-10-24T04:03:08;0.35;;;0.35;;
68593;SDS011;55563;52.416;13.548;2022-10-24T04:05:10;0.30;;;0.30;;
68593;SDS011;55563;52.416;13.548;2022-10-24T04:09:11;0.28;;;0.28;;
68593;SDS011;55563;52.416;13.548;2022-10-24T04:11:12;0.20;;;0.20;;
68593;SDS011;55563;52.416;13.548;2022-10-24T04:13:13;0.40;;;0.40;;
68593;SDS011;55563;52.416;13.548;2022-10-24T04:15:13;0.25;;;0.25;;
68593;SDS011;55563;52.416;13.548;2022-10-24T04:17:14;0.32;;;0.32;;
68593;SDS011;55563;52.416;13.548;2022-10-24T04:19:15;0.32;;;0.32;;
68593;SDS011;55563;52.416;13.548;2022-10-24T04:21:17;0.45;;;0.45;;
68593;SDS011;55563;52.416;13.548;2022-10-24T04:25:19;0.32;;;0.32;;
68593;SDS011;55563;52.416;13.548;2022-10-24T04:27:19;0.20;;;0.20;;
68593;SDS011;55563;52.416;13.548;2022-10-24T04:29:20;0.40;;;0.40;;
68593;SDS011;55563;52.416;13.548;2022-10-24T04:31:21;0.40;;;0.40;;
68593;SDS011;55563;52.416;13.548;2022-10-24T04:33:22;0.30;;;0.30;;
68593;SDS011;55563;52.416;13.548;2022-10-24T04:35:23;0.30;;;0.30;;
68593;SDS011;55563;52.416;13.548;2022-10-24T04:37:25;0.40;;;0.40;;
68593;SDS011;55563;52.416;13.548;2022-10-24T04:39:25;1.70;;;0.88;;
68593;SDS011;55563;52.416;13.548;2022-10-24T04:41:26;0.40;;;0.40;;
68593;SDS011;55563;52.416;13.548;2022-10-24T04:43:26;0.73;;;0.73;;
68593;SDS011;55563;52.416;13.548;2022-10-24T04:45:27;0.40;;;0.40;;
68593;SDS011;55563;52.416;13.548;2022-10-24T04:47:28;0.45;;;0.43;;
68593;SDS011;55563;52.416;13.548;2022-10-24T04:49:28;0.60;;;0.60;;
68593;SDS011;55563;52.416;13.548;2022-10-24T04:51:29;0.73;;;0.73;;
68593;SDS011;55563;52.416;13.548;2022-10-24T04:53:30;1.35;;;1.20;;
68593;SDS011;55563;52.416;13.548;2022-10-24T04:55:31;2.78;;;1.88;;
68593;SDS011;55563;52.416;13.548;2022-10-24T04:57:32;2.72;;;1.50;;
68593;SDS011;55563;52.416;13.548;2022-10-24T04:59:32;2.10;;;1.52;;
68593;SDS011;55563;52.416;13.548;2022-10-24T05:01:33;3.05;;;1.80;;
68593;SDS011;55563;52.416;13.548;2022-10-24T05:03:34;3.53;;;1.20;;
68593;SDS011;55563;52.416;13.548;2022-10-24T05:05:34;1.45;;;1.10;;
68593;SDS011;55563;52.416;13.548;2022-10-24T05:07:35;0.63;;;0.63;;
68593;SDS011;55563;52.416;13.548;2022-10-24T05:09:36;0.65;;;0.43;;
68593;SDS011;55563;52.416;13.548;2022-10-24T05:11:36;0.40;;;0.40;;
68593;SDS011;55563;52.416;13.548;2022-10-24T05:13:37;0.40;;;0.40;;
68593;SDS011;55563;52.416;13.548;2022-10-24T05:15:38;0.65;;;0.45;;
68593;SDS011;55563;52.416;13.548;2022-10-24T05:17:39;0.43;;;0.43;;
68593;SDS011;55563;52.416;13.548;2022-10-24T05:19:40;0.40;;;0.40;;
68593;SDS011;55563;52.416;13.548;2022-10-24T05:21:41;0.60;;;0.57;;
68593;SDS011;55563;52.416;13.548;2022-10-24T05:23:41;0.32;;;0.32;;
68593;SDS011;55563;52.416;13.548;2022-10-24T05:25:42;0.40;;;0.40;;
68593;SDS011;55563;52.416;13.548;2022-10-24T05:27:43;0.93;;;0.63;;
68593;SDS011;55563;52.416;13.548;2022-10-24T05:29:44;0.30;;;0.30;;
68593;SDS011;55563;52.416;13.548;2022-10-24T05:31:44;0.20;;;0.20;;
68593;SDS011;55563;52.416;13.548;2022-10-24T05:33:45;0.40;;;0.40;;
68593;SDS011;55563;52.416;13.548;2022-10-24T05:35:46;0.43;;;0.43;;
68593;SDS011;55563;52.416;13.548;2022-10-24T05:37:46;0.60;;;0.60;;
68593;SDS011;55563;52.416;13.548;2022-10-24T05:39:47;0.38;;;0.38;;
68593;SDS011;55563;52.416;13.548;2022-10-24T05:41:48;0.40;;;0.40;;
68593;SDS011;55563;52.416;13.548;2022-10-24T05:43:48;0.35;;;0.35;;
68593;SDS011;55563;52.416;13.548;2022-10-24T05:45:49;0.43;;;0.30;;
68593;SDS011;55563;52.416;13.548;2022-10-24T05:47:49;0.55;;;0.55;;
68593;SDS011;55563;52.416;13.548;2022-10-24T05:49:50;0.40;;;0.40;;
68593;SDS011;55563;52.416;13.548;2022-10-24T05:51:51;1.30;;;0.60;;
68593;SDS011;55563;52.416;13.548;2022-10-24T05:53:51;0.57;;;0.57;;
68593;SDS011;55563;52.416;13.548;2022-10-24T05:55:52;0.20;;;0.20;;
68593;SDS011;55563;52.416;13.548;2022-10-24T05:57:53;0.52;;;0.52;;
68593;SDS011;55563;52.416;13.548;2022-10-24T05:59:53;0.40;;;0.40;;
68593;SDS011;55563;52.416;13.548;2022-10-24T06:01:54;0.43;;;0.43;;
68593;SDS011;55563;52.416;13.548;2022-10-24T06:03:54;0.30;;;0.30;;
68593;SDS011;55563;52.416;13.548;2022-10-24T06:05:55;0.38;;;0.38;;
68593;SDS011;55563;52.416;13.548;2022-10-24T06:07:57;0.20;;;0.20;;
68593;SDS011;55563;52.416;13.548;2022-10-24T06:09:58;0.40;;;0.40;;
68593;SDS011;55563;52.416;13.548;2022-10-24T06:11:59;0.80;;;0.77;;
68593;SDS011;55563;52.416;13.548;2022-10-24T06:13:59;0.47;;;0.43;;
68593;SDS011;55563;52.416;13.548;2022-10-24T06:16:00;0.40;;;0.40;;
68593;SDS011;55563;52.416;13.548;2022-10-24T06:18:01;0.65;;;0.45;;
68593;SDS011;55563;52.416;13.548;2022-10-24T06:20:02;0.40;;;0.40;;
68593;SDS011;55563;52.416;13.548;2022-10-24T06:24:04;0.35;;;0.35;;
68593;SDS011;55563;52.416;13.548;2022-10-24T06:26:07;0.43;;;0.20;;
68593;SDS011;55563;52.416;13.548;2022-10-24T06:28:09;0.28;;;0.28;;
68593;SDS011;55563;52.416;13.548;2022-10-24T06:30:11;0.30;;;0.30;;
68593;SDS011;55563;52.416;13.548;2022-10-24T06:32:12;0.52;;;0.52;;
68593;SDS011;55563;52.416;13.548;2022-10-24T06:34:14;0.22;;;0.22;;
68593;SDS011;55563;52.416;13.548;2022-10-24T06:36:14;0.32;;;0.32;;
68593;SDS011;55563;52.416;13.548;2022-10-24T06:38:15;0.30;;;0.30;;
68593;SDS011;55563;52.416;13.548;2022-10-24T06:40:16;3.03;;;0.50;;
68593;SDS011;55563;52.416;13.548;2022-10-24T06:42:17;4.65;;;0.52;;
68593;SDS011;55563;52.416;13.548;2022-10-24T06:44:18;0.60;;;0.60;;
68593;SDS011;55563;52.416;13.548;2022-10-24T06:46:19;0.22;;;0.22;;
68593;SDS011;55563;52.416;13.548;2022-10-24T06:48:22;1.48;;;0.40;;
68593;SDS011;55563;52.416;13.548;2022-10-24T06:50:23;0.20;;;0.20;;
68593;SDS011;55563;52.416;13.548;2022-10-24T06:52:23;0.40;;;0.40;;
68593;SDS011;55563;52.416;13.548;2022-10-24T06:54:24;0.32;;;0.30;;
68593;SDS011;55563;52.416;13.548;2022-10-24T06:56:24;0.30;;;0.30;;
68593;SDS011;55563;52.416;13.548;2022-10-24T06:58:28;0.68;;;0.60;;
68593;SDS011;55563;52.416;13.548;2022-10-24T07:00:30;0.32;;;0.32;;
68593;SDS011;55563;52.416;13.548;2022-10-24T07:02:31;0.22;;;0.22;;
68593;SDS011;55563;52.416;13.548;2022-10-24T07:04:32;0.63;;;0.47;;
68593;SDS011;55563;52.416;13.548;2022-10-24T07:06:33;0.30;;;0.30;;
68593;SDS011;55563;52.416;13.548;2022-10-24T07:08:34;0.20;;;0.20;;
68593;SDS011;55563;52.416;13.548;2022-10-24T07:10:35;0.45;;;0.45;;
68593;SDS011;55563;52.416;13.548;2022-10-24T07:12:35;0.30;;;0.30;;
68593;SDS011;55563;52.416;13.548;2022-10-24T07:14:36;0.47;;;0.47;;
68593;SDS011;55563;52.416;13.548;2022-10-24T07:16:37;0.22;;;0.22;;
68593;SDS011;55563;52.416;13.548;2022-10-24T07:18:38;0.40;;;0.40;;
68593;SDS011;55563;52.416;13.548;2022-10-24T07:20:39;0.22;;;0.22;;
68593;SDS011;55563;52.416;13.548;2022-10-24T07:22:40;0.30;;;0.30;;
68593;SDS011;55563;52.416;13.548;2022-10-24T07:24:42;0.35;;;0.35;;
68593;SDS011;55563;52.416;13.548;2022-10-24T07:26:42;0.30;;;0.30;;
68593;SDS011;55563;52.416;13.548;2022-10-24T07:28:43;0.30;;;0.30;;
68593;SDS011;55563;52.416;13.548;2022-10-24T07:30:45;0.30;;;0.30;;
68593;SDS011;55563;52.416;13.548;2022-10-24T07:32:46;0.15;;;0.15;;
68593;SDS011;55563;52.416;13.548;2022-10-24T07:34:48;0.22;;;0.22;;
68593;SDS011;55563;52.416;13.548;2022-10-24T07:36:48;0.30;;;0.30;;
68593;SDS011;55563;52.416;13.548;2022-10-24T07:38:50;0.45;;;0.30;;
68593;SDS011;55563;52.416;13.548;2022-10-24T07:40:53;0.25;;;0.25;;
68593;SDS011;55563;52.416;13.548;2022-10-24T07:42:54;0.30;;;0.30;;
68593;SDS011;55563;52.416;13.548;2022-10-24T07:44:55;0.35;;;0.35;;
68593;SDS011;55563;52.416;13.548;2022-10-24T07:46:56;0.25;;;0.25;;
68593;SDS011;55563;52.416;13.548;2022-10-24T07:48:56;0.40;;;0.40;;
68593;SDS011;55563;52.416;13.548;2022-10-24T07:50:57;1.23;;;0.60;;
68593;SDS011;55563;52.416;13.548;2022-10-24T07:52:58;0.40;;;0.40;;
68593;SDS011;55563;52.416;13.548;2022-10-24T07:54:59;0.20;;;0.20;;
68593;SDS011;55563;52.416;13.548;2022-10-24T07:57:00;0.40;;;0.40;;
68593;SDS011;55563;52.416;13.548;2022-10-24T07:59:00;0.40;;;0.40;;
68593;SDS011;55563;52.416;13.548;2022-10-24T08:01:02;0.20;;;0.20;;
68593;SDS011;55563;52.416;13.548;2022-10-24T08:03:04;0.20;;;0.20;;
68593;SDS011;55563;52.416;13.548;2022-10-24T08:05:05;0.30;;;0.30;;
68593;SDS011;55563;52.416;13.548;2022-10-24T08:07:06;0.20;;;0.20;;
68593;SDS011;55563;52.416;13.548;2022-10-24T08:09:12;0.30;;;0.22;;
68593;SDS011;55563;52.416;13.548;2022-10-24T08:11:14;0.30;;;0.30;;
68593;SDS011;55563;52.416;13.548;2022-10-24T08:13:17;0.55;;;0.55;;
68593;SDS011;55563;52.416;13.548;2022-10-24T08:15:17;0.60;;;0.60;;
68593;SDS011;55563;52.416;13.548;2022-10-24T08:17:18;0.40;;;0.40;;
68593;SDS011;55563;52.416;13.548;2022-10-24T08:19:20;0.30;;;0.30;;
68593;SDS011;55563;52.416;13.548;2022-10-24T08:21:21;0.57;;;0.40;;
68593;SDS011;55563;52.416;13.548;2022-10-24T08:23:22;0.20;;;0.20;;
68593;SDS011;55563;52.416;13.548;2022-10-24T08:25:23;0.22;;;0.22;;
68593;SDS011;55563;52.416;13.548;2022-10-24T08:27:24;0.38;;;0.38;;
68593;SDS011;55563;52.416;13.548;2022-10-24T08:29:24;0.40;;;0.40;;
68593;SDS011;55563;52.416;13.548;2022-10-24T08:31:25;0.30;;;0.30;;
68593;SDS011;55563;52.416;13.548;2022-10-24T08:33:26;0.80;;;0.80;;
68593;SDS011;55563;52.416;13.548;2022-10-24T08:35:27;0.28;;;0.28;;
68593;SDS011;55563;52.416;13.548;2022-10-24T08:37:27;0.30;;;0.30;;
68593;SDS011;55563;52.416;13.548;2022-10-24T08:39:28;0.40;;;0.35;;
68593;SDS011;55563;52.416;13.548;2022-10-24T08:41:34;0.38;;;0.38;;
68593;SDS011;55563;52.416;13.548;2022-10-24T08:43:38;0.32;;;0.30;;
68593;SDS011;55563;52.416;13.548;2022-10-24T08:45:42;0.47;;;0.47;;
68593;SDS011;55563;52.416;13.548;2022-10-24T08:48:08;0.35;;;0.35;;
68593;SDS011;55563;52.416;13.548;2022-10-24T08:50:29;1.20;;;0.65;;
68593;SDS011;55563;52.416;13.548;2022-10-24T08:52:36;0.35;;;0.35;;
68593;SDS011;55563;52.416;13.548;2022-10-24T08:54:42;0.32;;;0.32;;
68593;SDS011;55563;52.416;13.548;2022-10-24T08:56:45;0.30;;;0.30;;
68593;SDS011;55563;52.416;13.548;2022-10-24T08:58:47;0.30;;;0.30;;
68593;SDS011;55563;52.416;13.548;2022-10-24T09:00:51;0.22;;;0.22;;
68593;SDS011;55563;52.416;13.548;2022-10-24T09:02:59;0.45;;;0.45;;
68593;SDS011;55563;52.416;13.548;2022-10-24T09:05:34;0.57;;;0.57;;
68593;SDS011;55563;52.416;13.548;2022-10-24T09:07:29;0.65;;;0.40;;
68593;SDS011;55563;52.416;13.548;2022-10-24T09:09:32;0.20;;;0.20;;
68593;SDS011;55563;52.416;13.548;2022-10-24T09:11:46;0.57;;;0.35;;
68593;SDS011;55563;52.416;13.548;2022-10-24T09:13:51;1.05;;;0.47;;
68593;SDS011;55563;52.416;13.548;2022-10-24T09:15:51;0.30;;;0.30;;
68593;SDS011;55563;52.416;13.548;2022-10-24T09:17:52;0.50;;;0.50;;
68593;SDS011;55563;52.416;13.548;2022-10-24T09:19:58;0.30;;;0.30;;
68593;SDS011;55563;52.416;13.548;2022-10-24T09:22:15;0.40;;;0.40;;
68593;SDS011;55563;52.416;13.548;2022-10-24T09:24:28;0.35;;;0.35;;
68593;SDS011;55563;52.416;13.548;2022-10-24T09:26:39;1.00;;;0.82;;
68593;SDS011;55563;52.416;13.548;2022-10-24T09:28:40;0.47;;;0.47;;
68593;SDS011;55563;52.416;13.548;2022-10-24T09:30:41;0.50;;;0.50;;
68593;SDS011;55563;52.416;13.548;2022-10-24T09:32:42;0.40;;;0.40;;
68593;SDS011;55563;52.416;13.548;2022-10-24T09:34:44;0.47;;;0.47;;
68593;SDS011;55563;52.416;13.548;2022-10-24T09:36:45;0.50;;;0.50;;
68593;SDS011;55563;52.416;13.548;2022-10-24T09:38:46;0.40;;;0.40;;
68593;SDS011;55563;52.416;13.548;2022-10-24T09:40:51;0.40;;;0.40;;
68593;SDS011;55563;52.416;13.548;2022-10-24T09:42:57;0.50;;;0.50;;
68593;SDS011;55563;52.416;13.548;2022-10-24T09:45:16;0.40;;;0.40;;
68593;SDS011;55563;52.416;13.548;2022-10-24T09:47:23;0.32;;;0.32;;
68593;SDS011;55563;52.416;13.548;2022-10-24T09:49:29;0.30;;;0.30;;
68593;SDS011;55563;52.416;13.548;2022-10-24T09:51:35;0.75;;;0.60;;
68593;SDS011;55563;52.416;13.548;2022-10-24T09:53:40;0.98;;;0.82;;
68593;SDS011;55563;52.416;13.548;2022-10-24T09:55:59;0.40;;;0.40;;
68593;SDS011;55563;52.416;13.548;2022-10-24T09:58:12;1.75;;;1.23;;
68593;SDS011;55563;52.416;13.548;2022-10-24T10:00:21;0.47;;;0.47;;
68593;SDS011;55563;52.416;13.548;2022-10-24T10:02:29;0.80;;;0.80;;
68593;SDS011;55563;52.416;13.548;2022-10-24T10:04:34;0.50;;;0.50;;
68593;SDS011;55563;52.416;13.548;2022-10-24T10:06:35;0.35;;;0.35;;
68593;SDS011;55563;52.416;13.548;2022-10-24T10:08:52;0.50;;;0.50;;
68593;SDS011;55563;52.416;13.548;2022-10-24T10:10:55;0.47;;;0.47;;
68593;SDS011;55563;52.416;13.548;2022-10-24T10:15:17;0.55;;;0.55;;
68593;SDS011;55563;52.416;13.548;2022-10-24T10:17:25;0.52;;;0.52;;
68593;SDS011;55563;52.416;13.548;2022-10-24T10:19:26;0.40;;;0.30;;
68593;SDS011;55563;52.416;13.548;2022-10-24T10:21:50;0.55;;;0.55;;
68593;SDS011;55563;52.416;13.548;2022-10-24T10:24:03;0.38;;;0.30;;
68593;SDS011;55563;52.416;13.548;2022-10-24T10:28:27;0.65;;;0.35;;
68593;SDS011;55563;52.416;13.548;2022-10-24T10:30:28;0.30;;;0.30;;
68593;SDS011;55563;52.416;13.548;2022-10-24T10:32:30;0.40;;;0.40;;
68593;SDS011;55563;52.416;13.548;2022-10-24T10:34:38;2.55;;;1.00;;
68593;SDS011;55563;52.416;13.548;2022-10-24T10:36:47;2.38;;;0.52;;
68593;SDS011;55563;52.416;13.548;2022-10-24T10:51:23;0.50;;;0.50;;
68593;SDS011;55563;52.416;13.548;2022-10-24T10:56:24;1.08;;;1.08;;
68593;SDS011;55563;52.416;13.548;2022-10-24T11:01:10;0.88;;;0.88;;
68593;SDS011;55563;52.416;13.548;2022-10-24T11:10:40;0.85;;;0.75;;
68593;SDS011;55563;52.416;13.548;2022-10-24T11:12:46;0.47;;;0.47;;
68593;SDS011;55563;52.416;13.548;2022-10-24T11:14:52;0.45;;;0.45;;
68593;SDS011;55563;52.416;13.548;2022-10-24T11:17:33;0.32;;;0.32;;
68593;SDS011;55563;52.416;13.548;2022-10-24T11:19:39;0.60;;;0.60;;
68593;SDS011;55563;52.416;13.548;2022-10-24T11:21:46;0.65;;;0.40;;
68593;SDS011;55563;52.416;13.548;2022-10-24T11:23:51;0.65;;;0.65;;
68593;SDS011;55563;52.416;13.548;2022-10-24T11:25:56;4.03;;;1.23;;
68593;SDS011;55563;52.416;13.548;2022-10-24T11:28:07;0.60;;;0.60;;
68593;SDS011;55563;52.416;13.548;2022-10-24T11:30:28;0.32;;;0.32;;
68593;SDS011;55563;52.416;13.548;2022-10-24T11:32:38;0.43;;;0.43;;
68593;SDS011;55563;52.416;13.548;2022-10-24T11:34:48;0.32;;;0.32;;
68593;SDS011;55563;52.416;13.548;2022-10-24T11:36:56;0.35;;;0.35;;
68593;SDS011;55563;52.416;13.548;2022-10-24T11:39:08;0.50;;;0.50;;
68593;SDS011;55563;52.416;13.548;2022-10-24T11:41:20;0.35;;;0.35;;
68593;SDS011;55563;52.416;13.548;2022-10-24T11:43:30;0.40;;;0.40;;
68593;SDS011;55563;52.416;13.548;2022-10-24T11:52:51;0.98;;;0.57;;
68593;SDS011;55563;52.416;13.548;2022-10-24T11:54:58;0.40;;;0.40;;
68593;SDS011;55563;52.416;13.548;2022-10-24T11:57:15;0.80;;;0.80;;
68593;SDS011;55563;52.416;13.548;2022-10-24T11:59:21;0.50;;;0.50;;
68593;SDS011;55563;52.416;13.548;2022-10-24T12:16:46;0.30;;;0.30;;
68593;SDS011;55563;52.416;13.548;2022-10-24T12:19:11;0.32;;;0.32;;
68593;SDS011;55563;52.416;13.548;2022-10-24T12:21:16;1.63;;;0.90;;
68593;SDS011;55563;52.416;13.548;2022-10-24T12:23:21;0.40;;;0.40;;
68593;SDS011;55563;52.416;13.548;2022-10-24T12:25:28;0.28;;;0.28;;
68593;SDS011;55563;52.416;13.548;2022-10-24T12:27:38;0.60;;;0.60;;
68593;SDS011;55563;52.416;13.548;2022-10-24T12:29:41;0.40;;;0.40;;
68593;SDS011;55563;52.416;13.548;2022-10-24T12:31:42;0.35;;;0.35;;
68593;SDS011;55563;52.416;13.548;2022-10-24T12:33:44;0.40;;;0.40;;
68593;SDS011;55563;52.416;13.548;2022-10-24T12:35:47;2.17;;;1.27;;
68593;SDS011;55563;52.416;13.548;2022-10-24T12:37:51;0.52;;;0.52;;
68593;SDS011;55563;52.416;13.548;2022-10-24T12:39:52;0.52;;;0.52;;
68593;SDS011;55563;52.416;13.548;2022-10-24T12:41:53;0.25;;;0.25;;
68593;SDS011;55563;52.416;13.548;2022-10-24T12:51:45;0.98;;;0.98;;
68593;SDS011;55563;52.416;13.548;2022-10-24T12:53:38;0.80;;;0.80;;
68593;SDS011;55563;52.416;13.548;2022-10-24T12:56:04;1.10;;;1.10;;
68593;SDS011;55563;52.416;13.548;2022-10-24T12:58:40;1.85;;;1.75;;
68593;SDS011;55563;52.416;13.548;2022-10-24T13:00:30;1.15;;;1.15;;
68593;SDS011;55563;52.416;13.548;2022-10-24T13:02:38;0.75;;;0.75;;
68593;SDS011;55563;52.416;13.548;2022-10-24T13:11:57;0.40;;;0.40;;
68593;SDS011;55563;52.416;13.548;2022-10-24T13:14:14;0.65;;;0.65;;
68593;SDS011;55563;52.416;13.548;2022-10-24T13:19:11;0.30;;;0.30;;
68593;SDS011;55563;52.416;13.548;2022-10-24T13:21:51;0.30;;;0.30;;
68593;SDS011;55563;52.416;13.548;2022-10-24T13:23:53;0.57;;;0.57;;
68593;SDS011;55563;52.416;13.548;2022-10-24T13:26:26;0.47;;;0.47;;
68593;SDS011;55563;52.416;13.548;2022-10-24T13:28:33;0.52;;;0.30;;
68593;SDS011;55563;52.416;13.548;2022-10-24T13:30:38;0.50;;;0.50;;
68593;SDS011;55563;52.416;13.548;2022-10-24T13:32:38;0.88;;;0.63;;
68593;SDS011;55563;52.416;13.548;2022-10-24T13:34:41;0.52;;;0.52;;
68593;SDS011;55563;52.416;13.548;2022-10-24T13:37:03;3.15;;;1.67;;
68593;SDS011;55563;52.416;13.548;2022-10-24T13:39:15;0.40;;;0.40;;
68593;SDS011;55563;52.416;13.548;2022-10-24T13:41:24;1.80;;;0.70;;